WEATHER DATA

YESTERDAY
Time Temp. Dewp. Hum. Wind dir Wind speed Wind gust Bar. 1h Prec. 24h Prec.
00:09 21.1 17.7 81 299 2.5 3.6 1022 0.0000 0.0000
00:19 21 17.6 81 301 2.5 3.9 1022.1 0.0000 0.0000
00:29 20.7 17.5 82 303 2.8 4.4 1022 0.0000 0.0000
00:39 20.6 17.4 82 286 1.7 2.8 1021.9 0.0000 0.0000
00:50 20.5 17.3 82 300 2.5 3.6 1021.8 0.0000 0.0000
00:59 20.3 17.1 82 297 2.5 3.1 1021.7 0.0000 0.0000
01:09 20.2 17.2 83 301 2.5 3.6 1021.8 0.0000 0.0000
01:20 20 17 83 298 2.5 3.1 1021.7 0.0000 0.0000
01:30 19.8 16.8 83 299 2.5 3.1 1021.6 0.0000 0.0000
01:40 19.6 16.8 84 304 2.8 3.9 1021.6 0.0000 0.0000
01:50 19.5 16.7 84 299 2.5 3.6 1021.5 0.0000 0.0000
02:00 19.4 16.8 85 303 2.8 3.9 1021.4 0.0000 0.0000
02:10 19.4 16.8 85 303 2.8 3.9 1021.3 0.0000 0.0000
02:20 19.3 16.7 85 299 2.5 3.6 1021.4 0.0000 0.0000
02:31 19.3 16.7 85 302 2.5 3.6 1021.3 0.0000 0.0000
02:40 19.1 16.5 85 303 2.8 3.6 1021.3 0.0000 0.0000
02:50 19 16.4 85 299 2.5 3.1 1021.3 0.0000 0.0000
03:00 19 16.6 86 298 2.5 3.1 1021.2 0.0000 0.0000
03:11 19 16.6 86 296 2.2 3.1 1021.2 0.0000 0.0000
03:21 18.9 16.5 86 296 2.2 2.8 1021.1 0.0000 0.0000
03:30 18.8 16.2 85 297 2.2 3.1 1021.1 0.0000 0.0000
03:41 18.6 16 85 296 2.2 2.8 1021 0.0000 0.0000
03:51 18.5 16.1 86 295 2.2 2.8 1020.8 0.0000 0.0000
04:01 18.4 16.2 87 293 2.2 2.8 1020.9 0.0000 0.0000
04:11 18.3 16.1 87 300 2.2 3.1 1020.8 0.0000 0.0000
04:21 18.2 16.2 88 296 2.2 2.8 1020.7 0.0000 0.0000
04:31 18.2 16.2 88 294 2.2 3.6 1020.6 0.0000 0.0000
04:41 18.1 16.1 88 297 2.2 2.8 1020.5 0.0000 0.0000
04:52 18.1 16.3 89 295 1.7 2.8 1020.4 0.0000 0.0000
05:01 18 16.2 89 298 2.2 3.1 1020.3 0.0000 0.0000
05:11 18 16.2 89 297 2.2 3.1 1020.2 0.0000 0.0000
05:21 17.8 16 89 298 2.2 2.8 1020.2 0.0000 0.0000
05:32 17.7 15.9 89 295 2.2 2.8 1020.1 0.0000 0.0000
05:42 17.5 15.7 89 297 2.2 2.5 1020 0.0000 0.0000
05:51 17.4 15.6 89 298 1.7 2.8 1020 0.0000 0.0000
06:02 17.3 15.5 89 297 1.7 2.8 1019.9 0.0000 0.0000
06:12 17.3 15.6 90 301 2.2 3.1 1019.9 0.0000 0.0000
06:22 17.2 15.5 90 296 1.7 2.8 1019.9 0.0000 0.0000
06:32 17.2 15.5 90 295 2.2 2.8 1019.8 0.0000 0.0000
06:42 17.2 15.5 90 298 2.2 2.8 1019.8 0.0000 0.0000
06:52 17.1 15.4 90 298 2.2 2.8 1019.8 0.0000 0.0000
07:02 17 15.3 90 297 2.2 2.8 1019.8 0.0000 0.0000
07:13 17 15.3 90 291 1.7 2.8 1019.8 0.0000 0.0000
07:23 17 15.3 90 299 2.2 3.1 1019.9 0.0000 0.0000
07:32 17 15.3 90 298 2.2 3.1 1019.9 0.0000 0.0000
07:42 17 15.2 89 299 2.2 3.1 1020.1 0.0000 0.0000
07:53 17 15.2 89 299 2.2 3.1 1020.1 0.0000 0.0000
08:03 17.1 15.3 89 300 2.2 3.1 1020.1 0.0000 0.0000
08:13 17.1 15.1 88 299 2.5 3.6 1020 0.0000 0.0000
08:23 17.2 15.2 88 299 2.5 3.6 1020.1 0.0000 0.0000
08:33 17.4 15.4 88 290 2.5 3.6 1020.2 0.0000 0.0000
08:44 17.6 15.6 88 302 2.8 3.9 1020.4 0.0000 0.0000
08:53 17.9 15.9 88 297 2.8 3.9 1020.6 0.0000 0.0000
09:04 18.3 16.5 89 299 3.1 4.4 1020.6 0.0000 0.0000
09:14 18.8 16.9 89 295 3.6 4.4 1020.6 0.0000 0.0000
09:24 19.6 17.6 88 297 3.9 5 1020.6 0.0000 0.0000
09:34 20.3 17.9 86 300 3.9 5 1020.6 0.0000 0.0000
09:44 21.2 18.2 83 298 3.9 5.3 1020.6 0.0000 0.0000
09:54 22.1 18.5 80 300 4.2 5 1020.5 0.0000 0.0000
10:04 23 19 78 291 3.6 5.3 1020.6 0.0000 0.0000
10:15 23.9 19.2 75 289 3.6 5 1020.5 0.0000 0.0000
10:24 24.7 19.5 73 295 3.6 4.4 1020.5 0.0000 0.0000
10:34 25.5 20.1 72 293 3.6 5.3 1020.5 0.0000 0.0000
10:44 26.2 20.1 69 292 3.6 4.4 1020.3 0.0000 0.0000
10:55 26.9 20 66 290 3.6 5.3 1020.3 0.0000 0.0000
11:05 27.6 19.4 61 293 3.6 5 1020 0.0000 0.0000
11:14 28 20 62 283 3.1 5.6 1020 0.0000 0.0000
11:25 28.3 20.1 61 297 3.6 4.4 1020 0.0000 0.0000
11:35 28.5 19.7 59 295 3.6 5 1019.9 0.0000 0.0000
11:45 28.9 20.1 59 299 3.6 5 1019.8 0.0000 0.0000
11:55 29.3 19.9 57 305 3.9 5 1019.7 0.0000 0.0000
12:05 29.5 20.1 57 299 3.9 5.3 1019.6
12:12 29.7 20.6 58 294 3.6 5.3 1019.5 0.0000 0.0000
12:22 29.8 20.4 57 288 3.1 5.3 1019.4 0.0000 0.0000
12:32 29.8 20.1 56 289 3.6 5 1019.2 0.0000 0.0000
12:42 29.7 19.4 54 274 3.1 5 1019 0.0000 0.0000
12:53 29.6 20.2 57 277 2.8 5.3 1018.7
13:03 29.5 20.6 59 265 2.8 4.4 1018.6 0.0000 0.0000
13:13 29.2 20.6 60 267 2.8 5 1018.6 0.0000 0.0000
13:23 28.8 20.8 62 245 2.8 5.3 1018.4 0.0000 0.0000
13:34 28.4 20.9 64 256 2.8 4.4 1018.1 0.0000 0.0000
13:44 28.1 20.9 65 279 2.8 5.8 1018.1 0.0000 0.0000
13:53 27.8 19.9 62 270 2.8 5 1018.1 0.0000 0.0000
14:04 27.4 19.5 62 278 2.8 4.2 1018 0.0000 0.0000
14:14 27.1 19.7 64 291 2.8 4.2 1017.8 0.0000 0.0000
14:24 27 20.1 66 282 2.5 4.2 1017.6 0.0000 0.0000
14:34 26.8 21.1 71 254 2.5 5 1017.5 0.0000 0.0000
14:44 26.6 21.1 72 254 2.5 4.4 1017.4 0.0000 0.0000
14:54 26.5 21.5 74 280 2.5 4.2 1017.2 0.0000 0.0000
15:04 26.4 21.6 75 252 2.5 5.6 1017 0.0000 0.0000
15:14 26.4 21.8 76 290 2.5 4.2 1017 0.0000 0.0000
15:25 26.5 21.7 75 252 2.5 4.2 1016.8 0.0000 0.0000
15:34 26.7 21.9 75 270 2.5 5 1016.8 0.0000 0.0000
15:44 26.9 22.1 75 266 2.5 5.3 1016.7 0.0000 0.0000
15:55 27 22 74 265 2.5 4.2 1016.6 0.0000 0.0000
16:05 26.9 21.9 74 274 2.5 4.4 1016.5 0.0000 0.0000
16:14 26.9 22.1 75 276 2.5 4.2 1016.3 0.0000 0.0000
16:25 26.9 21.9 74 275 2.8 5 1016.2 0.0000 0.0000
16:35 26.9 22.1 75 270 2.2 3.9 1016.2 0.0000 0.0000
16:45 26.9 21.9 74 266 2.5 4.2 1016.1 0.0000 0.0000
16:55 26.9 21.9 74 279 2.8 4.2 1015.9 0.0000 0.0000
17:05 26.9 22.1 75 281 2.2 3.9 1015.6 0.0000 0.0000
17:15 26.9 22.1 75 264 2.5 5.3 1015.6 0.0000 0.0000
17:25 26.9 21.7 73 257 2.8 4.2 1015.5 0.0000 0.0000
17:35 26.9 21.9 74 263 2.8 5 1015.5 0.0000 0.0000
17:46 26.7 21.7 74 259 2.5 4.2 1015.3 0.0000 0.0000
17:55 26.6 21.8 75 294 2.5 5 1015.3 0.0000 0.0000
18:05 26.5 21.7 75 265 2.5 4.4 1015.1 0.0000 0.0000
18:16 26.4 21.6 75 283 2.5 4.2 1014.9 0.0000 0.0000
18:26 26.2 21.6 76 270 2.5 3.9 1014.8 0.0000 0.0000
18:36 26.1 21.8 77 259 2.5 4.2 1014.8 0.0000 0.0000
18:46 26 21.7 77 255 2.5 3.9 1014.7 0.0000 0.0000
18:56 25.9 21.8 78 270 2.5 3.9 1014.7 0.0000 0.0000
19:06 25.7 21.6 78 278 2.5 3.6 1014.5 0.0000 0.0000
19:16 25.6 21.7 79 280 2.5 3.6 1014.4 0.0000 0.0000
19:26 25.4 21.5 79 288 2.5 3.6 1014.5 0.0000 0.0000
19:36 25.2 21.3 79 306 3.1 4.2 1014.5 0.0000 0.0000
19:46 25.1 21.4 80 312 3.9 5 1014.5 0.0000 0.0000
19:56 25 21.5 81 312 3.9 5.6 1014.6 0.0000 0.0000
20:07 24.8 21.3 81 308 3.6 4.4 1014.5 0.0000 0.0000
20:16 24.7 21.2 81 311 4.2 5.8 1014.7 0.0000 0.0000
20:26 24.6 20.9 80 310 3.9 5.3 1014.8 0.0000 0.0000
20:37 24.5 20.8 80 306 3.9 5 1014.7 0.0000 0.0000
20:47 24.4 20.7 80 310 3.9 5.3 1014.7 0.0000 0.0000
20:57 24.3 20.8 81 309 3.9 5.6 1014.8 0.0000 0.0000
21:07 24.3 20.8 81 306 3.6 5.3 1014.8 0.0000 0.0000
21:17 24.2 20.7 81 303 3.1 3.9 1014.9 0.0000 0.0000
21:27 24.1 20.6 81 304 3.6 5.6 1014.9 0.0000 0.0000
21:37 24.1 20.6 81 295 2.8 3.9 1015 0.0000 0.0000
21:48 24.1 20.6 81 298 2.5 3.9 1014.9 0.0000 0.0000
21:57 24 20.5 81 304 3.6 4.2 1014.8 0.0000 0.0000
22:07 24 20.5 81 307 3.6 4.4 1014.9 0.0000 0.0000
22:17 24 20.5 81 303 3.1 4.4 1014.9 0.0000 0.0000
22:28 24 20.3 80 310 3.9 5.3 1014.9 0.0000 0.0000
22:38 24.1 20.4 80 308 3.9 5 1015 0.0000 0.0000
22:47 24 20.3 80 313 4.4 5.8 1015 0.0000 0.0000
22:58 24.1 20.2 79 313 4.2 5.8 1015 0.0000 0.0000
23:08 24.1 20.2 79 313 4.4 5.8 1015 0.0000 0.0000
23:18 24 20.3 80 315 4.4 6.7 1015 0.0000 0.0000
23:27 24 20.5 81 313 3.9 5.8 1015.2 0.0000 0.0000
23:38 23.9 20.2 80 310 3.9 5.3 1015 0.0000 0.0000
23:48 23.9 20.2 80 310 3.6 4.4 1015
23:58 23.8 20.1 80 305 3.1 4.4 1015

DAY STATISTIC

2021-09-17
TEMPERATURE
AVERAGE
23.1
HIGH
29.8
12:22
LOW
17.0
07:02
PRESSURE
AVERAGE
1018.3
HIGH
1022.1
00:19
LOW
1014.4
19:16
DEWPOINT
AVERAGE
19.0
HIGH
22.1
15:44
LOW
15.1
08:13
HUMIDITY
AVERAGE
79
HIGH
90
06:12
LOW
54
12:42
WIND SPEED
AVERAGE
2.9
HIGH
4.4
22:47
WIND GUST
AVERAGE
4.2
HIGH
6.7
23:18
WIND DIRECTION
PREVAILING
NW
65%
N
0.0
NE
0.0
E
0.0
SE
0.0
S
0.0
SW
0.7
W
34.3
NW
65.0
PRECIPITATION
RAIN HOUR
0.0
RAIN DAY
0.0
TEMPERATURE (°C)
LOW
17.0
HIGH
29.8
AVERAGE
23.1
PRESSURE (hpa)
LOW
1014.4
HIGH
1022.1
AVERAGE
1018.3
DEVICE